Time;durP1;ratioP1;P1;durP2;ratioP2;P2;SDS_P1;SDS_P2;PMS_P1;PMS_P2;Temp;Humidity;BMP_temperature;BMP_pressure;BME280_temperature;BME280_humidity;BME280_pressure;Samples;Min_cycle;Max_cycle;Signal;HPM_P1;HPM_P2
2022/12/05 00:00:00;;;;;;;57.53;22.77;;;;;;;1.30;100.00;101054.06;5097783;28;20200;-81
2022/12/05 00:02:27;;;;;;;54.83;22.20;;;;;;;1.31;100.00;101060.19;5099575;28;20211;-81
2022/12/05 00:04:53;;;;;;;49.87;21.77;;;;;;;1.32;100.00;101052.28;5099444;28;20208;-81
2022/12/05 00:07:21;;;;;;;56.97;22.27;;;;;;;1.32;100.00;101056.66;5099272;28;20223;-81
2022/12/05 00:09:48;;;;;;;52.60;22.77;;;;;;;1.32;100.00;101052.28;5099487;28;20666;-80
2022/12/05 00:12:14;;;;;;;55.50;24.20;;;;;;;1.33;100.00;101058.38;5098569;28;20200;-81
2022/12/05 00:14:40;;;;;;;48.87;21.83;;;;;;;1.32;100.00;101041.78;5098650;28;20303;-80
2022/12/05 00:17:07;;;;;;;53.20;21.70;;;;;;;1.33;100.00;101050.50;5098734;28;20228;-81
2022/12/05 00:19:33;;;;;;;51.87;22.57;;;;;;;1.33;100.00;101051.38;5098110;28;20208;-82
2022/12/05 00:22:00;;;;;;;50.27;22.20;;;;;;;1.34;100.00;101058.38;5098524;28;20209;-80
2022/12/05 00:24:28;;;;;;;51.63;22.43;;;;;;;1.35;100.00;101040.88;5097489;28;20208;-81
2022/12/05 00:26:54;;;;;;;51.43;22.13;;;;;;;1.35;100.00;101040.88;5097299;28;20229;-81
2022/12/05 00:29:20;;;;;;;52.07;22.57;;;;;;;1.36;100.00;101039.97;5097409;28;20208;-80
2022/12/05 00:31:47;;;;;;;55.90;22.47;;;;;;;1.36;100.00;101042.59;5098228;28;20200;-80
2022/12/05 00:34:14;;;;;;;51.97;22.80;;;;;;;1.38;100.00;101043.44;5097207;28;20548;-80
2022/12/05 00:36:40;;;;;;;50.33;21.83;;;;;;;1.37;100.00;101042.56;5097348;28;20232;-80
2022/12/05 00:39:10;;;;;;;49.40;21.73;;;;;;;1.37;100.00;101037.31;5097745;28;20226;-81
2022/12/05 00:41:38;;;;;;;47.17;21.57;;;;;;;1.39;100.00;101037.28;5096947;28;20208;-79
2022/12/05 00:44:05;;;;;;;55.33;23.77;;;;;;;1.38;100.00;101041.66;5096515;28;20207;-79
2022/12/05 00:46:33;;;;;;;51.47;22.53;;;;;;;1.39;100.00;101046.03;5095739;28;20224;-78
2022/12/05 00:49:01;;;;;;;50.93;21.87;;;;;;;1.39;100.00;101045.16;5095951;28;20235;-79
2022/12/05 00:51:29;;;;;;;51.93;21.70;;;;;;;1.39;100.00;101048.66;5096947;28;20201;-79
2022/12/05 00:53:59;;;;;;;56.03;22.80;;;;;;;1.40;100.00;101046.91;5096171;28;20207;-79
2022/12/05 00:56:27;;;;;;;58.67;22.87;;;;;;;1.41;100.00;101043.38;5097182;28;20594;-79
2022/12/05 00:58:56;;;;;;;53.07;22.63;;;;;;;1.41;100.00;101045.13;5097640;28;20204;-79
2022/12/05 01:01:25;;;;;;;51.73;20.87;;;;;;;1.42;100.00;101052.13;5097754;28;20205;-79
2022/12/05 01:03:54;;;;;;;56.10;22.33;;;;;;;1.43;100.00;101048.59;5097191;28;20226;-79
2022/12/05 01:06:21;;;;;;;55.33;22.87;;;;;;;1.44;100.00;101042.41;5097217;28;20234;-80
2022/12/05 01:08:48;;;;;;;54.80;22.33;;;;;;;1.43;100.00;101044.22;5097416;28;20207;-79
2022/12/05 01:11:18;;;;;;;46.63;21.30;;;;;;;1.45;100.00;101041.53;5097080;28;20561;-80
2022/12/05 01:13:45;;;;;;;50.93;22.23;;;;;;;1.44;100.00;101042.41;5096745;28;20643;-79
2022/12/05 01:16:17;;;;;;;50.87;22.83;;;;;;;1.45;100.00;101041.53;5097304;28;20220;-80
2022/12/05 01:18:44;;;;;;;47.90;21.93;;;;;;;1.46;100.00;101040.63;5097184;28;20220;-80
2022/12/05 01:21:11;;;;;;;54.57;22.10;;;;;;;1.45;100.00;101041.53;5098763;28;20211;-80
2022/12/05 01:23:38;;;;;;;52.47;24.00;;;;;;;1.45;100.00;101038.91;5097976;28;20211;-81
2022/12/05 01:26:07;;;;;;;53.40;21.53;;;;;;;1.47;100.00;101039.75;5097501;28;20576;-79
2022/12/05 01:28:34;;;;;;;50.90;21.63;;;;;;;1.47;100.00;101039.75;5098392;28;20629;-80
2022/12/05 01:31:04;;;;;;;48.47;22.10;;;;;;;1.48;100.00;101041.47;5098486;28;20212;-80
2022/12/05 01:33:33;;;;;;;51.10;21.00;;;;;;;1.49;100.00;101040.59;5098444;28;20196;-79
2022/12/05 01:35:59;;;;;;;50.03;23.47;;;;;;;1.48;100.00;101041.47;5097531;28;20231;-81
2022/12/05 01:38:26;;;;;;;51.10;21.47;;;;;;;1.49;100.00;101043.22;5097831;28;20749;-79
2022/12/05 01:41:00;;;;;;;51.37;20.47;;;;;;;1.50;100.00;101042.31;5096722;28;20215;-79
2022/12/05 01:43:26;;;;;;;47.03;20.97;;;;;;;1.50;100.00;101045.81;5096850;28;20188;-80
2022/12/05 01:45:53;;;;;;;42.20;20.40;;;;;;;1.50;100.00;101039.69;5097093;28;20566;-80
2022/12/05 01:48:24;;;;;;;54.37;22.03;;;;;;;1.50;100.00;101042.31;5098249;28;20220;-79
2022/12/05 01:50:52;;;;;;;52.63;21.57;;;;;;;1.51;100.00;101044.03;5098236;28;20195;-79
2022/12/05 01:53:20;;;;;;;47.60;19.60;;;;;;;1.52;100.00;101045.78;5096353;28;20416;-79
2022/12/05 01:55:48;;;;;;;47.47;20.30;;;;;;;1.52;100.00;101037.91;5096982;28;20236;-81
2022/12/05 01:58:15;;;;;;;42.63;19.50;;;;;;;1.52;100.00;101038.78;5094910;28;20238;-79
2022/12/05 02:00:42;;;;;;;47.10;20.00;;;;;;;1.53;100.00;101039.63;5090005;28;20196;-78
2022/12/05 02:03:14;;;;;;;47.40;21.17;;;;;;;1.53;100.00;101029.13;5096537;28;20207;-80
2022/12/05 02:05:41;;;;;;;44.27;21.03;;;;;;;1.52;100.00;101037.91;5096042;28;20228;-80
2022/12/05 02:08:11;;;;;;;46.37;21.50;;;;;;;1.53;100.00;101029.13;5095990;28;20200;-78
2022/12/05 02:10:40;;;;;;;47.50;21.10;;;;;;;1.53;100.00;101034.38;5097567;28;20219;-79
2022/12/05 02:13:18;;;;;;;41.17;19.90;;;;;;;1.53;100.00;101029.13;5096610;28;20207;-80
2022/12/05 02:15:51;;;;;;;47.60;19.93;;;;;;;1.53;100.00;101034.38;5096180;28;20592;-79
2022/12/05 02:18:28;;;;;;;45.67;20.60;;;;;;;1.54;100.00;101036.13;5095932;28;20542;-79
2022/12/05 02:21:14;;;;;;;46.43;21.03;;;;;;;1.54;100.00;101039.59;5096333;28;20202;-80
2022/12/05 02:24:23;;;;;;;53.20;22.17;;;;;;;1.54;100.00;101036.97;5091336;28;20540;-81
2022/12/05 02:27:03;;;;;;;44.90;20.07;;;;;;;1.56;100.00;101034.31;5093476;28;20224;-79
2022/12/05 02:29:56;;;;;;;37.17;18.63;;;;;;;1.55;100.00;101043.97;5096328;28;20211;-79
2022/12/05 02:32:36;;;;;;;48.03;20.73;;;;;;;1.54;100.00;101038.75;5096485;28;20193;-79
2022/12/05 02:35:12;;;;;;;44.77;20.30;;;;;;;1.56;100.00;101042.19;5096010;28;20231;-78
2022/12/05 02:37:45;;;;;;;38.87;18.73;;;;;;;1.55;100.00;101033.47;5096623;28;20219;-80
2022/12/05 02:40:18;;;;;;;42.83;20.57;;;;;;;1.57;100.00;101028.19;5096837;28;20200;-79
2022/12/05 02:42:54;;;;;;;43.10;20.23;;;;;;;1.57;100.00;101033.44;5096469;28;20204;-80
2022/12/05 02:45:25;;;;;;;37.63;17.40;;;;;;;1.55;100.00;101028.22;5096198;28;20242;-79
2022/12/05 02:47:54;;;;;;;45.43;20.57;;;;;;;1.56;100.00;101029.06;5095907;28;20192;-78
2022/12/05 02:50:26;;;;;;;43.17;18.80;;;;;;;1.56;100.00;101029.06;5095632;28;20304;-80
2022/12/05 02:52:54;;;;;;;42.53;20.07;;;;;;;1.56;100.00;101023.81;5096669;28;20675;-79
2022/12/05 02:55:23;;;;;;;40.90;19.53;;;;;;;1.56;100.00;101021.19;5096331;28;20235;-80
2022/12/05 02:57:54;;;;;;;37.63;18.47;;;;;;;1.58;100.00;101027.28;5095963;28;20228;-79
2022/12/05 03:00:22;;;;;;;36.27;17.47;;;;;;;1.57;100.00;101020.31;5092234;28;20560;-81
2022/12/05 03:02:53;;;;;;;34.17;17.53;;;;;;;1.57;100.00;101020.31;5075747;28;20204;-81
2022/12/05 03:05:29;;;;;;;35.73;17.57;;;;;;;1.56;100.00;101024.69;5077143;28;20232;-80
2022/12/05 03:07:58;;;;;;;36.80;16.80;;;;;;;1.56;100.00;101018.56;5094778;28;20188;-79
2022/12/05 03:10:28;;;;;;;36.57;18.57;;;;;;;1.56;100.00;101023.81;5093885;28;20573;-79
2022/12/05 03:13:00;;;;;;;34.47;16.90;;;;;;;1.57;100.00;101020.31;5095029;28;20211;-80
2022/12/05 03:15:34;;;;;;;33.80;17.83;;;;;;;1.56;100.00;101029.06;5095200;28;20216;-79
2022/12/05 03:18:05;;;;;;;34.47;17.83;;;;;;;1.56;100.00;101023.81;5094111;28;20232;-79
2022/12/05 03:20:37;;;;;;;35.67;15.80;;;;;;;1.56;100.00;101034.31;5094697;28;20368;-79
2022/12/05 03:23:08;;;;;;;34.10;16.40;;;;;;;1.56;100.00;101029.06;5095133;28;20600;-79
2022/12/05 03:25:40;;;;;;;30.43;15.90;;;;;;;1.56;100.00;101027.31;5094680;28;20251;-79
2022/12/05 03:28:13;;;;;;;30.60;16.83;;;;;;;1.56;100.00;101034.31;5095919;28;20189;-78
2022/12/05 03:30:42;;;;;;;33.20;16.50;;;;;;;1.57;100.00;101036.91;5095194;28;20204;-78
2022/12/05 03:33:12;;;;;;;32.27;16.90;;;;;;;1.56;100.00;101034.31;5097027;28;20197;-79
2022/12/05 03:35:45;;;;;;;29.87;15.17;;;;;;;1.57;100.00;101029.06;5100166;28;20224;-80
2022/12/05 03:38:14;;;;;;;27.50;14.47;;;;;;;1.57;100.00;101023.81;5099887;28;20216;-78
2022/12/05 03:40:47;;;;;;;28.73;15.90;;;;;;;1.57;100.00;101021.16;5099398;28;20219;-81
2022/12/05 03:43:22;;;;;;;32.63;16.70;;;;;;;1.57;100.00;101021.16;5098989;28;20545;-81
2022/12/05 03:45:54;;;;;;;28.80;14.83;;;;;;;1.56;100.00;101021.19;5099151;28;20313;-80
2022/12/05 03:48:29;;;;;;;29.13;15.20;;;;;;;1.56;100.00;101018.56;5100051;28;20386;-81
2022/12/05 03:50:58;;;;;;;34.83;17.77;;;;;;;1.55;100.00;101017.72;5100878;28;20203;-80
2022/12/05 03:53:28;;;;;;;26.83;15.50;;;;;;;1.56;100.00;101016.81;5100468;28;20203;-80
2022/12/05 03:56:01;;;;;;;28.40;16.40;;;;;;;1.57;100.00;101020.31;5099692;28;20323;-80
2022/12/05 03:58:31;;;;;;;27.10;15.40;;;;;;;1.57;100.00;101012.44;5099748;28;20234;-80
2022/12/05 04:01:01;;;;;;;30.37;16.20;;;;;;;1.57;100.00;101015.06;5079210;28;20212;-80
2022/12/05 04:03:38;;;;;;;26.53;13.47;;;;;;;1.56;100.00;101023.81;5083014;28;20635;-79
2022/12/05 04:06:12;;;;;;;26.40;14.23;;;;;;;1.55;100.00;101019.47;5098829;28;20234;-79
2022/12/05 04:08:42;;;;;;;25.93;14.10;;;;;;;1.56;100.00;101021.19;5098663;28;20195;-79
2022/12/05 04:11:14;;;;;;;25.13;13.40;;;;;;;1.55;100.00;101017.72;5097931;28;20191;-79
2022/12/05 04:13:45;;;;;;;28.00;14.83;;;;;;;1.56;100.00;101018.56;5098293;28;20200;-80
2022/12/05 04:19:08;;;;;;;24.77;13.57;;;;;;;1.55;100.00;101011.59;5055346;28;20367;-80
2022/12/05 04:21:39;;;;;;;27.73;14.83;;;;;;;1.55;100.00;101016.84;5098005;28;20203;-78
2022/12/05 04:27:09;;;;;;;24.40;14.37;;;;;;;1.54;100.00;101020.38;5097076;28;20285;-80
2022/12/05 04:29:42;;;;;;;26.73;14.20;;;;;;;1.53;100.00;101014.25;5096426;28;20177;-79
2022/12/05 04:32:13;;;;;;;23.80;14.33;;;;;;;1.52;100.00;101011.66;5096569;28;20707;-80
2022/12/05 04:34:42;;;;;;;24.77;13.97;;;;;;;1.51;100.00;101010.78;5096532;28;20208;-79
2022/12/05 04:37:13;;;;;;;25.13;13.53;;;;;;;1.50;100.00;101002.94;5097956;28;20212;-79
2022/12/05 04:39:44;;;;;;;24.00;13.87;;;;;;;1.49;100.00;101006.47;5098354;28;20230;-79
2022/12/05 04:42:16;;;;;;;26.83;14.00;;;;;;;1.48;100.00;101009.97;5097148;28;20200;-80
2022/12/05 04:44:48;;;;;;;23.93;13.57;;;;;;;1.45;100.00;101010.91;5096497;28;20200;-79
2022/12/05 04:47:18;;;;;;;25.50;14.53;;;;;;;1.46;100.00;101011.75;5096764;28;20196;-79
2022/12/05 04:49:46;;;;;;;24.57;14.57;;;;;;;1.45;100.00;101010.03;5096545;28;20188;-79
2022/12/05 04:52:13;;;;;;;24.47;14.10;;;;;;;1.45;100.00;101015.28;5095210;28;20204;-80
2022/12/05 04:54:45;;;;;;;26.87;13.43;;;;;;;1.45;100.00;101007.41;5095608;28;20216;-79
2022/12/05 04:57:18;;;;;;;23.63;14.33;;;;;;;1.45;100.00;101007.41;5095723;28;20188;-80
2022/12/05 04:59:45;;;;;;;25.63;13.53;;;;;;;1.44;100.00;101014.41;5095795;28;20215;-79
2022/12/05 05:02:30;;;;;;;27.57;13.77;;;;;;;1.44;100.00;101013.56;5095690;28;20707;-79
2022/12/05 05:05:00;;;;;;;22.40;14.17;;;;;;;1.44;100.00;101010.94;5095158;28;20237;-79
2022/12/05 05:07:27;;;;;;;29.07;14.77;;;;;;;1.43;100.00;101009.22;5096735;28;20204;-79
2022/12/05 05:09:55;;;;;;;26.00;14.20;;;;;;;1.43;100.00;101004.84;5096883;28;20208;-80
2022/12/05 05:12:21;;;;;;;27.63;13.77;;;;;;;1.44;100.00;101005.69;5096315;28;20286;-80
2022/12/05 05:14:48;;;;;;;27.20;13.90;;;;;;;1.43;100.00;101003.97;5095511;28;20207;-80
2022/12/05 05:17:16;;;;;;;24.13;14.63;;;;;;;1.42;100.00;101016.25;5096518;28;20208;-79
2022/12/05 05:19:42;;;;;;;23.40;13.53;;;;;;;1.42;100.00;101020.63;5096406;28;20223;-79
2022/12/05 05:22:09;;;;;;;22.70;13.30;;;;;;;1.42;100.00;101016.25;5096458;28;20206;-79
2022/12/05 05:24:35;;;;;;;24.63;13.90;;;;;;;1.41;100.00;101017.13;5096626;28;20210;-79
2022/12/05 05:27:02;;;;;;;23.77;13.47;;;;;;;1.41;100.00;101024.13;5096034;28;20224;-80
2022/12/05 05:29:28;;;;;;;25.83;12.87;;;;;;;1.39;100.00;101017.16;5095991;28;20559;-79
2022/12/05 05:31:55;;;;;;;22.97;13.07;;;;;;;1.37;100.00;101024.19;5095900;28;20211;-79
2022/12/05 05:34:25;;;;;;;23.43;13.00;;;;;;;1.39;100.00;101021.53;5095322;28;20563;-79
2022/12/05 05:36:52;;;;;;;20.63;12.37;;;;;;;1.37;100.00;101011.06;5097229;28;20220;-79
2022/12/05 05:39:18;;;;;;;22.30;13.03;;;;;;;1.35;100.00;101017.25;5096482;28;20273;-80
2022/12/05 05:41:45;;;;;;;18.47;12.83;;;;;;;1.33;100.00;101017.28;5096378;28;20205;-79
2022/12/05 05:44:11;;;;;;;19.67;12.40;;;;;;;1.33;100.00;101026.91;5096303;28;20877;-79
2022/12/05 05:46:38;;;;;;;22.40;12.70;;;;;;;1.32;100.00;101026.03;5095604;28;20751;-80
2022/12/05 05:49:05;;;;;;;24.73;13.37;;;;;;;1.32;100.00;101027.78;5095610;28;20271;-79
2022/12/05 05:51:33;;;;;;;24.00;13.53;;;;;;;1.30;100.00;101027.81;5094842;28;20207;-79
2022/12/05 05:54:00;;;;;;;22.27;13.20;;;;;;;1.30;100.00;101030.44;5095435;28;20207;-79
2022/12/05 05:56:27;;;;;;;23.27;13.33;;;;;;;1.29;100.00;101026.09;5095289;28;20745;-79
2022/12/05 05:58:59;;;;;;;23.43;13.37;;;;;;;1.29;100.00;101033.97;5095195;28;20235;-79
2022/12/05 06:01:25;;;;;;;23.60;13.17;;;;;;;1.28;100.00;101034.84;5095081;28;20580;-79
2022/12/05 06:03:52;;;;;;;19.87;12.53;;;;;;;1.29;100.00;101028.72;5095745;28;20311;-78
2022/12/05 06:06:20;;;;;;;21.67;13.47;;;;;;;1.27;100.00;101030.50;5078045;28;20620;-79
2022/12/05 06:08:48;;;;;;;23.27;13.37;;;;;;;1.26;100.00;101026.13;5075737;28;20200;-79
2022/12/05 06:11:17;;;;;;;23.27;13.07;;;;;;;1.26;100.00;101026.13;5087386;28;20212;-78
2022/12/05 06:13:44;;;;;;;23.00;12.40;;;;;;;1.25;100.00;101020.97;5096083;28;20208;-79
2022/12/05 06:16:12;;;;;;;23.30;13.10;;;;;;;1.25;100.00;101028.81;5094793;28;20239;-78
2022/12/05 06:18:38;;;;;;;21.00;12.87;;;;;;;1.24;100.00;101024.47;5087930;28;20728;-79
2022/12/05 06:21:07;;;;;;;23.17;13.07;;;;;;;1.22;100.00;101019.25;5089444;28;20205;-78
2022/12/05 06:23:34;;;;;;;21.57;12.63;;;;;;;1.22;100.00;101035.00;5090493;28;20208;-78
2022/12/05 06:26:03;;;;;;;20.60;12.03;;;;;;;1.19;100.00;101035.03;5083930;28;20239;-79
2022/12/05 06:28:36;;;;;;;19.27;12.40;;;;;;;1.19;100.00;101037.66;5092522;28;20701;-79
2022/12/05 06:31:07;;;;;;;21.27;12.67;;;;;;;1.16;100.00;101035.09;5094506;28;20210;-79
2022/12/05 06:33:34;;;;;;;22.37;12.30;;;;;;;1.16;100.00;101037.72;5095208;28;20184;-78
2022/12/05 06:36:05;;;;;;;18.70;11.47;;;;;;;1.16;100.00;101042.97;5091709;28;20736;-80
2022/12/05 06:38:32;;;;;;;18.43;12.43;;;;;;;1.15;100.00;101043.84;5080032;28;20224;-79
2022/12/05 06:40:58;;;;;;;17.60;11.60;;;;;;;1.15;100.00;101043.00;5087471;28;20215;-79
2022/12/05 06:43:26;;;;;;;15.70;11.17;;;;;;;1.14;100.00;101043.88;5092028;28;20200;-79
2022/12/05 06:45:53;;;;;;;19.83;11.70;;;;;;;1.14;100.00;101044.75;5092083;28;20263;-79
2022/12/05 06:48:19;;;;;;;18.23;11.87;;;;;;;1.14;100.00;101049.13;5092073;28;20204;-79
2022/12/05 06:50:51;;;;;;;19.37;11.87;;;;;;;1.13;100.00;101045.63;5091776;28;20216;-80
2022/12/05 06:53:18;;;;;;;18.80;12.17;;;;;;;1.12;100.00;101049.16;5092419;28;20701;-80
2022/12/05 06:55:45;;;;;;;17.93;11.30;;;;;;;1.12;100.00;101048.28;5091674;28;20238;-80
2022/12/05 06:58:11;;;;;;;17.87;11.33;;;;;;;1.12;100.00;101049.16;5090754;28;20216;-79
2022/12/05 07:03:23;;;;;;;16.53;11.20;;;;;;;1.12;100.00;101051.78;5092076;28;20211;-80
2022/12/05 07:05:50;;;;;;;19.93;11.97;;;;;;;1.13;100.00;101063.13;5091248;28;20224;-79
2022/12/05 07:08:16;;;;;;;16.67;10.53;;;;;;;1.14;100.00;101064.88;5091539;28;20200;-80
2022/12/05 07:10:42;;;;;;;17.33;11.77;;;;;;;1.14;100.00;101059.63;5091441;28;20650;-79
2022/12/05 07:13:09;;;;;;;17.83;10.87;;;;;;;1.15;100.00;101059.59;5091536;28;20214;-79
2022/12/05 07:15:38;;;;;;;16.77;11.67;;;;;;;1.15;100.00;101064.84;5091689;28;20220;-79
2022/12/05 07:18:05;;;;;;;17.20;11.50;;;;;;;1.16;100.00;101071.81;5091078;28;20207;-79
2022/12/05 07:20:31;;;;;;;17.93;12.40;;;;;;;1.13;100.00;101064.00;5091170;28;20224;-80
2022/12/05 07:22:58;;;;;;;18.20;11.73;;;;;;;1.13;100.00;101066.63;5084702;28;20646;-80
2022/12/05 07:25:25;;;;;;;15.97;10.77;;;;;;;1.12;100.00;101064.91;5091108;28;20220;-79
2022/12/05 07:27:51;;;;;;;19.83;11.83;;;;;;;1.12;100.00;101070.13;5084843;28;20680;-80
2022/12/05 07:30:18;;;;;;;16.57;11.47;;;;;;;1.13;100.00;101068.38;5091365;28;20200;-80
2022/12/05 07:32:46;;;;;;;19.90;12.00;;;;;;;1.13;100.00;101073.63;5092356;28;20758;-79
2022/12/05 07:35:12;;;;;;;16.70;11.40;;;;;;;1.12;100.00;101080.63;5092709;28;20224;-79
2022/12/05 07:37:39;;;;;;;20.63;11.70;;;;;;;1.13;100.00;101076.25;5091755;28;20204;-79
2022/12/05 07:40:06;;;;;;;19.97;11.93;;;;;;;1.11;100.00;101073.66;5091390;28;20244;-80
2022/12/05 07:42:33;;;;;;;19.70;11.60;;;;;;;1.13;100.00;101081.50;5079344;28;20208;-79
2022/12/05 07:45:00;;;;;;;22.70;12.13;;;;;;;1.12;100.00;101075.38;5081138;28;20570;-79
2022/12/05 07:47:26;;;;;;;20.93;11.53;;;;;;;1.13;100.00;101071.88;5086614;28;20208;-80
2022/12/05 07:49:54;;;;;;;17.27;11.30;;;;;;;1.12;100.00;101078.00;5091728;28;20200;-79
2022/12/05 07:52:20;;;;;;;15.37;9.97;;;;;;;1.12;100.00;101080.63;5091762;28;20793;-79
2022/12/05 07:54:47;;;;;;;16.83;12.07;;;;;;;1.12;100.00;101079.75;5084472;28;20224;-79
2022/12/05 07:57:13;;;;;;;15.80;10.83;;;;;;;1.12;100.00;101085.00;5071991;28;20205;-79
2022/12/05 07:59:40;;;;;;;18.13;11.90;;;;;;;1.10;100.00;101077.16;5071687;28;20263;-80
2022/12/05 08:02:06;;;;;;;21.67;12.13;;;;;;;1.11;100.00;101086.78;5077754;28;20219;-78
2022/12/05 08:04:33;;;;;;;20.20;10.80;;;;;;;1.11;100.00;101089.41;5092180;28;20210;-78
2022/12/05 08:07:01;;;;;;;20.00;11.73;;;;;;;1.10;100.00;101082.41;5091533;28;20557;-78
2022/12/05 08:09:27;;;;;;;22.57;12.43;;;;;;;1.11;100.00;101084.16;5091649;28;20208;-79
2022/12/05 08:11:53;;;;;;;20.57;11.67;;;;;;;1.09;100.00;101083.31;5091285;28;20674;-79
2022/12/05 08:14:20;;;;;;;15.93;10.23;;;;;;;1.10;100.00;101081.53;5091673;28;20670;-77
2022/12/05 08:16:47;;;;;;;19.07;11.60;;;;;;;1.08;100.00;101078.94;5090944;28;20224;-78
2022/12/05 08:19:15;;;;;;;19.13;12.37;;;;;;;1.09;100.00;101085.06;5092506;28;20690;-79
2022/12/05 08:21:42;;;;;;;16.93;10.80;;;;;;;1.08;100.00;101086.81;5095214;28;20294;-80
2022/12/05 08:24:10;;;;;;;21.60;12.13;;;;;;;1.07;100.00;101087.75;5095692;28;20204;-79
2022/12/05 08:26:38;;;;;;;18.23;11.67;;;;;;;1.06;100.00;101087.75;5095307;28;20225;-78
2022/12/05 08:29:07;;;;;;;16.70;10.83;;;;;;;1.05;100.00;101084.28;5095448;28;20211;-79
2022/12/05 08:31:36;;;;;;;17.93;11.40;;;;;;;1.05;100.00;101084.28;5095034;28;20634;-80
2022/12/05 08:34:02;;;;;;;17.73;11.30;;;;;;;1.06;100.00;101093.00;5096178;28;20224;-80
2022/12/05 08:36:30;;;;;;;20.07;11.83;;;;;;;1.07;100.00;101092.13;5095661;28;20225;-79
2022/12/05 08:38:58;;;;;;;18.53;11.00;;;;;;;1.07;100.00;101103.47;5095628;28;20262;-79
2022/12/05 08:41:27;;;;;;;17.67;11.37;;;;;;;1.07;100.00;101097.38;5096302;28;20238;-80
2022/12/05 08:43:54;;;;;;;18.87;12.23;;;;;;;1.07;100.00;101097.38;5095633;28;20204;-79
2022/12/05 08:46:21;;;;;;;17.27;11.37;;;;;;;1.06;100.00;101103.50;5096257;28;20230;-79
2022/12/05 08:48:48;;;;;;;19.90;11.97;;;;;;;1.06;100.00;101101.75;5096176;28;20204;-79
2022/12/05 08:51:14;;;;;;;17.50;11.77;;;;;;;1.02;100.00;101092.19;5096466;28;20687;-79
2022/12/05 08:53:41;;;;;;;18.33;12.00;;;;;;;1.02;100.00;101092.19;5095643;28;20295;-79
2022/12/05 08:56:10;;;;;;;21.27;11.47;;;;;;;1.02;100.00;101100.94;5095149;28;20228;-79
2022/12/05 08:58:38;;;;;;;15.60;10.80;;;;;;;1.02;100.00;101100.94;5095091;28;20262;-79
2022/12/05 09:01:05;;;;;;;16.37;11.70;;;;;;;1.02;100.00;101094.81;5095724;28;20230;-79
2022/12/05 09:03:32;;;;;;;16.93;11.57;;;;;;;1.02;100.00;101102.69;5096115;28;20219;-79
2022/12/05 09:06:06;;;;;;;17.30;11.60;;;;;;;1.03;100.00;101107.03;5095216;28;20228;-80
2022/12/05 09:08:32;;;;;;;17.87;11.00;;;;;;;1.04;100.00;101108.78;5095841;28;20193;-79
2022/12/05 09:10:59;;;;;;;17.17;10.97;;;;;;;1.04;100.00;101098.28;5096424;28;20299;-80
2022/12/05 09:13:25;;;;;;;21.40;13.43;;;;;;;1.03;100.00;101097.41;5095979;28;20211;-80
2022/12/05 09:15:53;;;;;;;18.07;12.07;;;;;;;1.03;100.00;101096.56;5093973;28;20584;-81
2022/12/05 09:18:19;;;;;;;21.97;12.53;;;;;;;1.04;100.00;101098.28;5094370;28;20360;-82
2022/12/05 09:20:46;;;;;;;16.97;11.57;;;;;;;1.04;100.00;101095.66;5094280;28;20223;-80
2022/12/05 09:23:12;;;;;;;18.33;11.70;;;;;;;1.03;100.00;101092.16;5094270;28;20208;-80
2022/12/05 09:25:41;;;;;;;17.50;11.87;;;;;;;1.05;100.00;101094.78;5093566;28;20236;-80
2022/12/05 09:28:07;;;;;;;18.10;11.53;;;;;;;1.04;100.00;101093.03;5093879;28;20214;-80
2022/12/05 09:30:34;;;;;;;18.37;10.70;;;;;;;1.05;100.00;101089.53;5093285;28;20204;-79
2022/12/05 09:33:01;;;;;;;17.73;11.40;;;;;;;1.07;100.00;101100.84;5093872;28;20717;-80
2022/12/05 09:35:28;;;;;;;16.43;11.10;;;;;;;1.08;100.00;101099.94;5093632;28;20246;-80
2022/12/05 09:37:55;;;;;;;15.73;10.17;;;;;;;1.10;100.00;101100.78;5094402;28;20596;-80
2022/12/05 09:40:22;;;;;;;19.47;11.63;;;;;;;1.12;100.00;101099.00;5093857;28;20638;-80
2022/12/05 09:42:58;;;;;;;18.07;11.37;;;;;;;1.14;100.00;101094.59;5093506;28;20215;-80
2022/12/05 09:45:30;;;;;;;17.30;11.87;;;;;;;1.16;100.00;101103.31;5093580;28;20223;-79
2022/12/05 09:48:00;;;;;;;20.87;13.70;;;;;;;1.16;100.00;101105.94;5093542;28;20189;-80
2022/12/05 09:50:30;;;;;;;17.10;12.00;;;;;;;1.18;100.00;101101.53;5093531;28;20188;-80
2022/12/05 09:53:05;;;;;;;17.77;12.30;;;;;;;1.20;100.00;101106.75;5093105;28;20318;-80
2022/12/05 09:55:41;;;;;;;17.80;12.23;;;;;;;1.20;100.00;101097.13;5093451;28;20731;-80
2022/12/05 09:58:20;;;;;;;18.47;11.73;;;;;;;1.23;100.00;101098.81;5093725;28;20577;-80
2022/12/05 10:00:49;;;;;;;18.03;11.40;;;;;;;1.24;100.00;101097.94;5093500;28;20208;-80
2022/12/05 10:03:25;;;;;;;18.33;11.80;;;;;;;1.25;100.00;101100.53;5093560;28;20215;-79
2022/12/05 10:06:02;;;;;;;16.53;11.70;;;;;;;1.26;100.00;101093.50;5093325;28;20223;-79
2022/12/05 10:08:35;;;;;;;16.40;11.97;;;;;;;1.27;100.00;101088.22;5093676;28;20657;-80
2022/12/05 10:11:06;;;;;;;18.43;12.10;;;;;;;1.27;100.00;101089.97;5093267;28;20196;-79
2022/12/05 10:13:48;;;;;;;17.83;12.13;;;;;;;1.26;100.00;101089.13;5093315;28;20184;-80
2022/12/05 10:16:21;;;;;;;15.87;11.03;;;;;;;1.26;100.00;101083.88;5093080;28;20224;-80
2022/12/05 10:18:54;;;;;;;19.50;11.90;;;;;;;1.25;100.00;101090.03;5093145;28;20188;-80
2022/12/05 10:21:29;;;;;;;19.20;12.13;;;;;;;1.25;100.00;101083.94;5092837;28;20204;-79
2022/12/05 10:23:59;;;;;;;16.60;11.87;;;;;;;1.25;100.00;101081.31;5092509;28;20198;-80
2022/12/05 10:26:29;;;;;;;18.00;12.00;;;;;;;1.26;100.00;101089.13;5093390;28;20250;-80
2022/12/05 10:29:07;;;;;;;17.50;11.40;;;;;;;1.25;100.00;101083.94;5092900;28;20240;-81
2022/12/05 10:31:36;;;;;;;17.97;12.33;;;;;;;1.25;100.00;101090.03;5092855;28;20279;-81
2022/12/05 10:34:06;;;;;;;18.23;11.73;;;;;;;1.26;100.00;101088.25;5093269;28;20208;-81
2022/12/05 10:36:34;;;;;;;20.37;12.23;;;;;;;1.26;100.00;101091.75;5093021;28;20224;-81
2022/12/05 10:39:00;;;;;;;14.97;10.90;;;;;;;1.25;100.00;101082.16;5092402;28;20685;-81
2022/12/05 10:41:27;;;;;;;15.53;11.03;;;;;;;1.27;100.00;101087.34;5091841;28;20298;-80
2022/12/05 10:43:56;;;;;;;16.93;11.57;;;;;;;1.28;100.00;101087.34;5091783;28;20256;-81
2022/12/05 10:46:22;;;;;;;19.60;11.63;;;;;;;1.29;100.00;101089.06;5092946;28;20363;-81
2022/12/05 10:48:49;;;;;;;16.73;11.17;;;;;;;1.29;100.00;101086.44;5093491;28;20201;-82
2022/12/05 10:51:21;;;;;;;14.23;10.50;;;;;;;1.30;100.00;101087.31;5093928;28;20223;-82
2022/12/05 10:53:51;;;;;;;17.57;11.27;;;;;;;1.31;100.00;101087.28;5093338;28;20749;-82
2022/12/05 10:56:41;;;;;;;15.70;11.23;;;;;;;1.31;100.00;101082.03;5094310;28;20231;-82
2022/12/05 10:59:10;;;;;;;18.27;10.83;;;;;;;1.33;100.00;101084.63;5093223;28;20200;-83
2022/12/05 11:01:42;;;;;;;16.43;10.90;;;;;;;1.34;100.00;101083.75;5093147;28;20565;-82
2022/12/05 11:04:20;;;;;;;17.83;11.13;;;;;;;1.35;100.00;101088.97;5093124;28;20211;-83
2022/12/05 11:06:52;;;;;;;18.03;10.67;;;;;;;1.35;100.00;101082.84;5092853;28;20588;-83
2022/12/05 11:09:23;;;;;;;17.17;11.33;;;;;;;1.35;100.00;101085.47;5093044;28;20293;-82
2022/12/05 11:12:04;;;;;;;15.43;10.90;;;;;;;1.34;100.00;101081.97;5092556;28;20199;-82
2022/12/05 11:14:32;;;;;;;15.90;10.60;;;;;;;1.35;100.00;101073.22;5093270;28;20188;-82
2022/12/05 11:17:00;;;;;;;16.43;11.37;;;;;;;1.35;100.00;101073.22;5093241;28;20705;-83
2022/12/05 11:19:30;;;;;;;15.80;10.57;;;;;;;1.34;100.00;101068.84;5093116;28;20204;-83
2022/12/05 11:21:56;;;;;;;16.70;11.23;;;;;;;1.35;100.00;101065.34;5092945;28;20211;-83
2022/12/05 11:24:27;;;;;;;15.07;11.07;;;;;;;1.36;100.00;101064.44;5092690;28;20668;-81
2022/12/05 11:26:54;;;;;;;15.40;10.73;;;;;;;1.35;100.00;101065.34;5091917;28;20252;-83